Time;durP1;ratioP1;P1;durP2;ratioP2;P2;SDS_P1;SDS_P2;PMS_P1;PMS_P2;Temp;Humidity;BMP_temperature;BMP_pressure;BME280_temperature;BME280_humidity;BME280_pressure;Samples;Min_cycle;Max_cycle;Signal;HPM_P1;HPM_P2
2024/04/13 00:01:48;;;;;;;25.80;13.05;;;;;;;;;;5486146;26;20002;-82
2024/04/13 00:04:53;;;;;;;18.75;12.27;;;;;;;;;;5485823;26;20018;-82
2024/04/13 00:07:58;;;;;;;18.75;11.00;;;18.20;91.40;;;;;;5485892;26;20502;-82
2024/04/13 00:11:02;;;;;;;16.48;9.57;;;;;;;;;;5484807;26;20022;-81
2024/04/13 00:14:06;;;;;;;19.13;11.05;;;;;;;;;;5485015;26;20029;-82
2024/04/13 00:17:11;;;;;;;15.48;10.15;;;;;;;;;;5485951;26;20469;-83
2024/04/13 00:20:15;;;;;;;15.45;8.50;;;;;;;;;;5485807;26;20026;-81
2024/04/13 00:23:20;;;;;;;16.67;8.68;;;;;;;;;;5485534;26;20034;-82
2024/04/13 00:26:25;;;;;;;13.43;8.60;;;;;;;;;;5485584;26;20026;-82
2024/04/13 00:29:31;;;;;;;15.48;7.78;;;;;;;;;;5485290;26;20030;-81
2024/04/13 00:32:36;;;;;;;19.58;8.05;;;;;;;;;;5485489;26;20037;-81
2024/04/13 00:35:41;;;;;;;12.02;7.63;;;;;;;;;;5485020;26;20049;-81
2024/04/13 00:38:46;;;;;;;16.75;7.10;;;;;;;;;;5485278;26;20026;-82
2024/04/13 00:41:53;;;;;;;15.73;7.20;;;;;;;;;;5485866;26;20026;-81
2024/04/13 00:45:04;;;;;;;16.95;7.30;;;;;;;;;;5466297;26;20026;-80
2024/04/13 00:48:11;;;;;;;13.35;7.65;;;19.10;87.90;;;;;;5488469;26;20030;-79
2024/04/13 00:51:17;;;;;;;13.63;7.95;;;;;;;;;;5489160;26;20018;-81
2024/04/13 00:54:23;;;;;;;18.77;7.60;;;;;;;;;;5489121;26;20023;-82
2024/04/13 00:57:27;;;;;;;12.60;7.75;;;;;;;;;;5489446;26;20026;-82
2024/04/13 01:00:34;;;;;;;13.18;7.60;;;19.00;87.80;;;;;;5488218;26;20022;-81
2024/04/13 01:03:39;;;;;;;12.48;7.25;;;;;;;;;;5488381;26;20026;-81
2024/04/13 01:06:51;;;;;;;10.98;7.57;;;18.60;88.10;;;;;;5487698;26;20030;-81
2024/04/13 01:09:55;;;;;;;13.85;7.82;;;;;;;;;;5486977;26;20022;-81
2024/04/13 01:13:00;;;;;;;14.65;7.68;;;;;;;;;;5488022;26;20023;-80
2024/04/13 01:16:05;;;;;;;17.45;8.00;;;;;;;;;;5487308;26;20030;-82
2024/04/13 01:19:11;;;;;;;13.13;8.23;;;;;;;;;;5487100;26;20378;-81
2024/04/13 01:22:15;;;;;;;17.75;8.20;;;;;;;;;;5487087;26;20366;-81
2024/04/13 01:25:23;;;;;;;14.80;7.95;;;;;;;;;;5486850;26;20042;-82
2024/04/13 01:28:32;;;;;;;12.32;8.05;;;18.80;89.80;;;;;;5486984;26;20042;-81
2024/04/13 01:31:37;;;;;;;11.55;7.40;;;18.70;89.30;;;;;;5488077;26;20030;-81
2024/04/13 01:34:42;;;;;;;11.10;7.82;;;;;;;;;;5489036;26;20144;-81
2024/04/13 01:37:46;;;;;;;11.02;7.82;;;;;;;;;;5488995;26;20370;-81
2024/04/13 01:40:51;;;;;;;11.90;7.70;;;;;;;;;;5488755;26;20030;-81
2024/04/13 01:43:56;;;;;;;14.98;10.70;;;;;;;;;;5489408;26;20026;-81
2024/04/13 01:47:01;;;;;;;13.40;8.40;;;;;;;;;;5489856;26;20014;-82
2024/04/13 01:50:05;;;;;;;14.43;8.18;;;;;;;;;;5492236;26;20517;-81
2024/04/13 01:53:10;;;;;;;12.43;9.10;;;;;;;;;;5498804;26;20015;-80
2024/04/13 01:56:14;;;;;;;11.88;7.85;;;;;;;;;;5497991;26;20019;-81
2024/04/13 01:59:19;;;;;;;13.57;7.88;;;;;;;;;;5495273;26;20030;-82
2024/04/13 02:02:24;;;;;;;12.13;9.00;;;;;;;;;;5488326;26;20030;-82
2024/04/13 02:05:28;;;;;;;14.63;8.27;;;;;;;;;;5487972;26;20033;-81
2024/04/13 02:08:33;;;;;;;15.93;9.20;;;19.90;90.60;;;;;;5465456;26;20461;-82
2024/04/13 02:11:38;;;;;;;12.52;8.30;;;;;;;;;;5487700;26;20018;-83
2024/04/13 02:14:42;;;;;;;10.73;7.82;;;;;;;;;;5487795;26;20034;-81
2024/04/13 02:17:47;;;;;;;13.55;7.68;;;;;;;;;;5488424;26;20029;-82
2024/04/13 02:20:51;;;;;;;10.98;6.90;;;;;;;;;;5487532;26;20026;-82
2024/04/13 02:23:56;;;;;;;17.77;8.50;;;;;;;;;;5486027;26;20034;-81
2024/04/13 02:27:02;;;;;;;18.88;8.73;;;;;;;;;;5487449;26;20030;-81
2024/04/13 02:30:08;;;;;;;10.52;7.05;;;;;;;;;;5485900;26;20030;-82
2024/04/13 02:33:12;;;;;;;14.88;7.30;;;;;;;;;;5485823;26;20033;-82
2024/04/13 02:36:16;;;;;;;15.80;7.80;;;;;;;;;;5486942;26;20141;-81
2024/04/13 02:39:21;;;;;;;7.72;6.68;;;;;;;;;;5487266;26;20026;-81
2024/04/13 02:42:26;;;;;;;15.15;8.30;;;;;;;;;;5464715;26;20030;-82
2024/04/13 02:45:30;;;;;;;14.73;8.23;;;;;;;;;;5486922;26;20098;-82
2024/04/13 02:48:39;;;;;;;13.55;7.80;;;18.10;90.00;;;;;;5485750;26;20034;-81
2024/04/13 02:51:43;;;;;;;13.07;7.70;;;;;;;;;;5486777;26;20022;-81
2024/04/13 02:54:48;;;;;;;13.48;7.88;;;;;;;;;;5486214;26;20038;-81
2024/04/13 02:57:53;;;;;;;15.60;8.27;;;;;;;;;;5486839;26;20313;-80
2024/04/13 03:00:58;;;;;;;9.98;7.50;;;17.90;90.40;;;;;;5487004;26;20037;-81
2024/04/13 03:04:03;;;;;;;16.02;7.97;;;;;;;;;;5486577;26;20652;-81
2024/04/13 03:07:07;;;;;;;11.55;8.15;;;;;;;;;;5486537;26;20029;-80
2024/04/13 03:10:13;;;;;;;10.68;6.72;;;;;;;;;;5485846;26;20370;-81
2024/04/13 03:13:17;;;;;;;11.57;6.93;;;;;;;;;;5486433;26;20026;-81
2024/04/13 03:16:24;;;;;;;12.75;7.38;;;;;;;;;;5486693;26;20041;-82
2024/04/13 03:19:28;;;;;;;10.02;7.13;;;;;;;;;;5486548;26;20482;-81
2024/04/13 03:22:33;;;;;;;10.70;6.57;;;;;;;;;;5485366;26;20041;-81
2024/04/13 03:25:38;;;;;;;8.70;6.47;;;;;;;;;;5485003;26;20054;-81
2024/04/13 03:28:43;;;;;;;11.73;6.88;;;;;;;;;;5486208;26;20030;-81
2024/04/13 03:31:47;;;;;;;11.98;6.68;;;;;;;;;;5486734;26;20018;-81
2024/04/13 03:34:52;;;;;;;14.45;7.35;;;;;;;;;;5486275;26;20478;-81
2024/04/13 03:37:57;;;;;;;12.15;6.78;;;;;;;;;;5486223;26;20370;-80
2024/04/13 03:41:08;;;;;;;8.70;6.53;;;17.80;88.70;;;;;;5486004;26;20038;-81
2024/04/13 03:44:13;;;;;;;11.63;5.53;;;;;;;;;;5463699;26;20022;-81
2024/04/13 03:47:17;;;;;;;9.90;6.60;;;;;;;;;;5485638;26;20026;-82
2024/04/13 03:50:22;;;;;;;12.30;6.63;;;;;;;;;;5485634;26;20030;-81
2024/04/13 03:53:26;;;;;;;13.13;6.88;;;;;;;;;;5484534;26;20026;-81
2024/04/13 03:56:32;;;;;;;13.80;7.35;;;;;;;;;;5485180;26;20055;-81
2024/04/13 03:59:36;;;;;;;26.35;8.30;;;;;;;;;;5485565;26;20026;-81
2024/04/13 04:02:41;;;;;;;15.73;7.60;;;;;;;;;;5486025;26;20033;-81
2024/04/13 04:05:51;;;;;;;9.85;7.05;;;16.90;90.00;;;;;;5485469;26;20026;-80
2024/04/13 04:08:56;;;;;;;16.63;8.32;;;;;;;;;;5484579;26;20029;-81
2024/04/13 04:12:00;;;;;;;12.70;6.93;;;;;;;;;;5485571;26;20149;-80
2024/04/13 04:15:05;;;;;;;17.20;7.22;;;;;;;;;;5484944;26;20030;-81
2024/04/13 04:18:09;;;;;;;10.32;7.20;;;;;;;;;;5482969;26;20030;-81
2024/04/13 04:21:14;;;;;;;20.90;7.55;;;;;;;;;;5485468;26;20029;-81
2024/04/13 04:24:18;;;;;;;17.88;7.85;;;;;;;;;;5485548;26;20335;-81
2024/04/13 04:27:23;;;;;;;16.77;7.38;;;;;;;;;;5485691;26;20030;-82
2024/04/13 04:30:27;;;;;;;26.50;8.02;;;;;;;;;;5485544;26;20030;-82
2024/04/13 04:33:32;;;;;;;20.83;7.65;;;;;;;;;;5484196;26;20026;-82
2024/04/13 04:36:39;;;;;;;23.77;7.88;;;;;;;;;;5485407;26;20030;-82
2024/04/13 04:39:44;;;;;;;15.32;7.43;;;;;;;;;;5483952;26;20026;-82
2024/04/13 04:42:48;;;;;;;19.10;7.45;;;;;;;;;;5485260;26;20151;-83
2024/04/13 04:45:52;;;;;;;13.75;7.35;;;;;;;;;;5484897;26;20030;-82
2024/04/13 04:48:57;;;;;;;16.02;7.25;;;;;;;;;;5485104;26;20485;-82
2024/04/13 04:52:01;;;;;;;12.70;7.30;;;;;;;;;;5485175;26;20025;-82
2024/04/13 04:55:06;;;;;;;16.27;7.72;;;;;;;;;;5483513;26;20030;-82
2024/04/13 04:58:10;;;;;;;12.48;7.82;;;;;;;;;;5484746;26;20485;-82
2024/04/13 05:01:14;;;;;;;12.50;7.97;;;;;;;;;;5484728;26;20026;-82
2024/04/13 05:04:19;;;;;;;25.05;8.27;;;;;;;;;;5484989;26;20039;-81
2024/04/13 05:07:23;;;;;;;16.92;9.02;;;;;;;;;;5484692;26;20477;-81
2024/04/13 05:10:28;;;;;;;14.32;8.23;;;;;;;;;;5483573;26;20030;-80
2024/04/13 05:13:32;;;;;;;16.27;7.85;;;;;;;;;;5483704;26;20054;-79
2024/04/13 05:16:37;;;;;;;10.38;6.82;;;18.60;87.00;;;;;;5484394;26;20033;-81
2024/04/13 05:19:41;;;;;;;12.95;7.03;;;;;;;;;;5484454;26;20365;-80
2024/04/13 05:22:45;;;;;;;16.60;8.18;;;;;;;;;;5484577;26;20025;-80
2024/04/13 05:25:51;;;;;;;14.93;8.13;;;;;;;;;;5484172;26;20030;-80
2024/04/13 05:28:55;;;;;;;19.48;7.68;;;;;;;;;;5486646;26;20030;-81
2024/04/13 05:31:59;;;;;;;9.40;6.00;;;;;;;;;;5488102;26;20481;-81
2024/04/13 05:35:04;;;;;;;10.13;6.88;;;;;;;;;;5487767;26;20026;-81
2024/04/13 05:38:08;;;;;;;20.88;9.90;;;;;;;;;;5465883;26;20033;-81
2024/04/13 05:41:13;;;;;;;14.27;9.85;;;;;;;;;;5487844;26;20030;-80
2024/04/13 05:44:17;;;;;;;21.48;9.50;;;;;;;;;;5486523;26;20498;-76
2024/04/13 05:47:22;;;;;;;15.38;7.88;;;;;;;;;;5485457;26;20030;-71
2024/04/13 05:50:26;;;;;;;22.17;9.30;;;;;;;;;;5486460;26;20026;-70
2024/04/13 05:53:31;;;;;;;24.05;8.88;;;23.80;76.30;;;;;;5486884;26;20030;-70
2024/04/13 05:56:35;;;;;;;19.02;8.55;;;23.80;76.50;;;;;;5487294;26;20019;-70
2024/04/13 05:59:41;;;;;;;17.05;9.32;;;23.70;77.10;;;;;;5484083;26;20493;-71
2024/04/13 06:02:45;;;;;;;16.10;8.68;;;23.40;77.40;;;;;;5485032;26;20022;-76
2024/04/13 06:05:49;;;;;;;16.70;8.55;;;23.20;77.80;;;;;;5484976;26;20034;-79
2024/04/13 06:08:53;;;;;;;23.95;8.60;;;23.10;78.50;;;;;;5485104;26;20018;-82
2024/04/13 06:11:57;;;;;;;19.60;7.85;;;23.10;79.00;;;;;;5485940;26;20022;-80
2024/04/13 06:15:02;;;;;;;19.83;9.10;;;23.20;78.90;;;;;;5486823;26;20018;-85
2024/04/13 06:18:06;;;;;;;22.40;10.00;;;23.30;78.80;;;;;;5488213;26;20026;-80
2024/04/13 06:21:10;;;;;;;23.83;9.18;;;23.50;78.60;;;;;;5488132;26;20018;-78
2024/04/13 06:24:14;;;;;;;29.63;9.27;;;23.70;78.30;;;;;;5487510;26;20022;-81
2024/04/13 06:27:19;;;;;;;26.05;9.95;;;23.90;77.80;;;;;;5487918;26;20018;-80
2024/04/13 06:30:23;;;;;;;22.25;8.93;;;24.00;77.60;;;;;;5487669;26;20018;-87
2024/04/13 06:33:27;;;;;;;24.67;10.02;;;24.30;77.30;;;;;;5488525;26;20018;-78
2024/04/13 06:36:31;;;;;;;20.45;8.40;;;24.80;76.30;;;;;;5486676;26;20026;-77
2024/04/13 06:39:35;;;;;;;32.65;9.45;;;24.90;75.60;;;;;;5486321;26;20022;-82
2024/04/13 06:42:39;;;;;;;30.05;9.05;;;24.90;76.10;;;;;;5486986;26;20019;-83
2024/04/13 06:45:43;;;;;;;23.40;9.45;;;25.20;74.80;;;;;;5485137;26;20041;-84
2024/04/13 06:48:48;;;;;;;19.88;9.18;;;25.20;75.20;;;;;;5486976;26;20022;-77
2024/04/13 06:51:52;;;;;;;27.08;11.25;;;25.40;75.50;;;;;;5486991;26;20022;-79
2024/04/13 06:54:56;;;;;;;21.20;10.43;;;25.60;74.20;;;;;;5486442;26;20022;-81
2024/04/13 06:58:00;;;;;;;25.58;11.40;;;25.70;73.90;;;;;;5486683;26;20026;-75
2024/04/13 07:01:04;;;;;;;35.05;14.77;;;25.80;74.10;;;;;;5486457;26;20041;-74
2024/04/13 07:04:08;;;;;;;27.27;12.60;;;26.00;73.60;;;;;;5487103;26;20489;-79
2024/04/13 07:07:15;;;;;;;28.92;11.32;;;26.10;73.80;;;;;;5487416;26;20014;-79
2024/04/13 07:10:19;;;;;;;51.70;16.25;;;26.20;73.30;;;;;;5486541;26;20018;-78
2024/04/13 07:13:23;;;;;;;19.73;11.35;;;26.30;73.50;;;;;;5486613;26;20022;-80
2024/04/13 07:16:28;;;;;;;22.95;9.88;;;26.40;73.00;;;;;;5486143;26;20098;-77
2024/04/13 07:19:32;;;;;;;18.42;9.88;;;26.60;72.70;;;;;;5486862;26;20022;-83
2024/04/13 07:22:36;;;;;;;29.42;10.45;;;26.70;73.20;;;;;;5484847;26;20022;-76
2024/04/13 07:25:40;;;;;;;64.50;11.45;;;26.80;73.00;;;;;;5486145;26;20022;-75
2024/04/13 07:28:44;;;;;;;18.52;9.52;;;26.90;73.40;;;;;;5486284;26;20464;-76
2024/04/13 07:31:48;;;;;;;32.08;10.18;;;26.90;72.80;;;;;;5486105;26;20021;-80
2024/04/13 07:34:52;;;;;;;27.85;9.63;;;27.10;72.90;;;;;;5486716;26;20018;-82
2024/04/13 07:37:56;;;;;;;19.40;9.38;;;27.30;72.90;;;;;;5486234;26;20021;-83
2024/04/13 07:41:00;;;;;;;21.65;8.60;;;27.50;71.90;;;;;;5486464;26;20026;-80
2024/04/13 07:44:04;;;;;;;16.98;7.78;;;27.60;70.40;;;;;;5486339;26;20030;-81
2024/04/13 07:47:08;;;;;;;21.63;9.25;;;27.60;70.90;;;;;;5486266;26;20414;-80
2024/04/13 07:50:12;;;;;;;16.23;7.25;;;27.70;71.50;;;;;;5486441;26;20376;-79
2024/04/13 07:53:16;;;;;;;25.30;8.95;;;27.60;70.50;;;;;;5486021;26;20438;-78
2024/04/13 07:56:21;;;;;;;20.27;6.97;;;27.60;70.80;;;;;;5485494;26;20030;-79
2024/04/13 07:59:25;;;;;;;15.70;7.18;;;27.40;70.80;;;;;;5486062;26;20026;-78
2024/04/13 08:02:28;;;;;;;48.20;9.07;;;27.40;71.60;;;;;;5485741;26;20022;-79
2024/04/13 08:05:33;;;;;;;24.25;8.00;;;27.30;70.80;;;;;;5485602;26;20022;-78
2024/04/13 08:08:37;;;;;;;18.05;7.13;;;27.30;70.70;;;;;;5485898;26;20022;-80
2024/04/13 08:11:41;;;;;;;14.57;7.15;;;27.50;71.50;;;;;;5485522;26;20022;-79
2024/04/13 08:14:45;;;;;;;14.32;7.10;;;27.80;71.00;;;;;;5486940;26;20030;-80
2024/04/13 08:17:50;;;;;;;11.85;6.72;;;27.90;70.90;;;;;;5486064;26;20041;-78
2024/04/13 08:20:53;;;;;;;13.90;7.10;;;28.10;71.20;;;;;;5485920;26;20022;-77
2024/04/13 08:23:58;;;;;;;13.65;6.55;;;28.20;71.50;;;;;;5485628;26;20611;-79
2024/04/13 08:27:02;;;;;;;12.02;6.93;;;28.10;70.90;;;;;;5485897;26;20086;-80
2024/04/13 08:30:07;;;;;;;26.38;7.00;;;28.20;70.70;;;;;;5485618;26;20023;-80
2024/04/13 08:33:11;;;;;;;18.73;7.78;;;28.20;71.10;;;;;;5485857;26;20026;-79
2024/04/13 08:36:15;;;;;;;16.92;8.07;;;28.30;70.60;;;;;;5485737;26;20018;-76
2024/04/13 08:39:19;;;;;;;16.38;8.18;;;28.30;70.40;;;;;;5485444;26;20018;-77
2024/04/13 08:42:34;;;;;;;29.42;8.05;;;28.20;70.00;;;;;;5485235;26;20022;-78
2024/04/13 08:45:37;;;;;;;18.30;7.70;;;28.00;70.30;;;;;;5485060;26;20019;-79
2024/04/13 08:48:42;;;;;;;24.23;8.18;;;28.10;70.70;;;;;;5484990;26;20018;-80
2024/04/13 08:51:47;;;;;;;12.57;6.78;;;28.00;71.30;;;;;;5484819;26;20038;-76
2024/04/13 08:54:51;;;;;;;15.95;7.80;;;28.00;70.70;;;;;;5484529;26;20022;-77
2024/04/13 08:57:56;;;;;;;17.73;7.47;;;28.00;69.70;;;;;;5485091;26;20030;-79
2024/04/13 09:01:01;;;;;;;12.63;6.85;;;28.00;70.30;;;;;;5484973;26;20022;-78
2024/04/13 09:04:07;;;;;;;11.52;7.20;;;28.10;70.80;;;;;;5487221;26;20019;-77
2024/04/13 09:07:11;;;;;;;14.13;6.68;;;28.10;70.70;;;;;;5488960;26;20026;-78
2024/04/13 09:10:18;;;;;;;18.10;7.68;;;28.10;70.30;;;;;;5488539;26;20026;-78
2024/04/13 09:13:22;;;;;;;17.98;8.00;;;28.20;70.70;;;;;;5488394;26;20021;-77
2024/04/13 09:16:26;;;;;;;15.30;7.80;;;28.20;70.70;;;;;;5487915;26;20385;-79
2024/04/13 09:19:31;;;;;;;17.65;7.82;;;28.10;70.40;;;;;;5488447;26;20022;-78
2024/04/13 09:22:36;;;;;;;13.55;7.18;;;28.10;70.70;;;;;;5488299;26;20046;-78
2024/04/13 09:25:40;;;;;;;25.00;7.72;;;28.10;69.90;;;;;;5487762;26;20022;-76
2024/04/13 09:28:45;;;;;;;11.23;7.25;;;28.10;68.10;;;;;;5487527;26;20022;-76
2024/04/13 09:31:49;;;;;;;18.88;7.32;;;28.00;68.60;;;;;;5487901;26;20022;-78
2024/04/13 09:34:55;;;;;;;16.67;7.63;;;27.80;68.70;;;;;;5487910;26;20022;-75
2024/04/13 09:38:00;;;;;;;11.43;5.95;;;27.70;68.60;;;;;;5488293;26;20452;-75
2024/04/13 09:41:07;;;;;;;14.82;7.90;;;27.70;67.40;;;;;;5487760;26;20500;-79
2024/04/13 09:44:11;;;;;;;9.43;6.40;;;27.80;69.00;;;;;;5487773;26;20364;-77
2024/04/13 09:47:16;;;;;;;16.33;6.97;;;27.90;69.10;;;;;;5487922;26;20033;-79
2024/04/13 09:50:20;;;;;;;14.48;7.15;;;28.00;68.50;;;;;;5488252;26;20018;-81
2024/04/13 09:53:24;;;;;;;10.25;6.75;;;28.10;68.40;;;;;;5487623;26;20360;-77
2024/04/13 09:56:28;;;;;;;13.95;7.20;;;28.30;68.50;;;;;;5487608;26;20021;-78
2024/04/13 09:59:34;;;;;;;12.40;6.15;;;28.40;67.80;;;;;;5487097;26;20022;-78
2024/04/13 10:02:38;;;;;;;10.63;4.90;;;28.40;64.10;;;;;;5487094;26;20037;-76
2024/04/13 10:05:46;;;;;;;9.05;4.55;;;28.40;63.70;;;;;;5487401;26;20026;-76
2024/04/13 10:08:51;;;;;;;14.85;5.78;;;28.50;63.70;;;;;;5486854;26;20026;-77
2024/04/13 10:11:56;;;;;;;11.00;4.93;;;28.50;63.70;;;;;;5487456;26;20018;-78
2024/04/13 10:15:01;;;;;;;13.25;4.65;;;28.60;63.30;;;;;;5485815;26;20026;-81
2024/04/13 10:18:05;;;;;;;6.60;4.90;;;28.70;63.60;;;;;;5487134;26;20018;-76
2024/04/13 10:21:12;;;;;;;13.23;5.30;;;28.90;61.60;;;;;;5486855;26;20053;-76
2024/04/13 10:24:17;;;;;;;14.15;5.25;;;28.90;60.40;;;;;;5486753;26;20026;-77
2024/04/13 10:27:22;;;;;;;8.27;4.93;;;28.90;60.00;;;;;;5486764;26;20042;-78
2024/04/13 10:30:26;;;;;;;10.52;4.82;;;28.80;60.30;;;;;;5486936;26;20018;-79
2024/04/13 10:33:32;;;;;;;8.95;5.05;;;28.90;60.40;;;;;;5487068;26;20469;-79
2024/04/13 10:36:36;;;;;;;9.98;4.93;;;29.00;61.10;;;;;;5486770;26;20034;-80
2024/04/13 10:39:40;;;;;;;6.40;3.90;;;29.10;60.80;;;;;;5487307;26;20022;-79
2024/04/13 10:42:44;;;;;;;22.15;14.23;;;29.20;61.10;;;;;;5487887;26;20030;-79
2024/04/13 10:45:56;;;;;;;9.73;5.35;;;29.30;60.90;;;;;;5487733;26;20041;-77
2024/04/13 10:49:04;;;;;;;10.77;5.20;;;29.30;60.30;;;;;;5487139;26;20034;-77
2024/04/13 10:52:10;;;;;;;15.23;5.20;;;29.30;59.50;;;;;;5487027;26;20022;-79
2024/04/13 10:55:17;;;;;;;9.63;4.68;;;29.20;59.80;;;;;;5486908;26;20029;-79
2024/04/13 10:58:26;;;;;;;16.45;4.95;;;29.20;60.30;;;;;;5485430;26;20022;-75
2024/04/13 11:01:31;;;;;;;10.63;4.70;;;29.10;59.30;;;;;;5486960;26;20026;-77
2024/04/13 11:04:43;;;;;;;10.65;4.65;;;28.90;59.10;;;;;;5486543;26;20365;-77
2024/04/13 11:07:50;;;;;;;9.48;5.18;;;28.90;59.50;;;;;;5486908;26;20029;-78
2024/04/13 11:11:00;;;;;;;7.78;4.55;;;28.90;59.80;;;;;;5486342;26;20033;-76
2024/04/13 11:14:05;;;;;;;11.60;5.30;;;28.90;60.50;;;;;;5486751;26;20568;-77
2024/04/13 11:17:09;;;;;;;10.48;5.40;;;28.90;59.90;;;;;;5486415;26;20018;-75
2024/04/13 11:20:14;;;;;;;11.90;5.15;;;28.90;58.90;;;;;;5486812;26;20018;-78
2024/04/13 11:23:18;;;;;;;6.88;4.60;;;28.80;59.20;;;;;;5486609;26;20021;-78
2024/04/13 11:26:22;;;;;;;8.60;5.18;;;28.80;60.90;;;;;;5485772;26;20026;-81
2024/04/13 11:29:26;;;;;;;9.35;4.88;;;28.80;61.10;;;;;;5486247;26;20536;-79
2024/04/13 11:32:30;;;;;;;11.38;5.57;;;28.80;60.90;;;;;;5487295;26;20030;-80
2024/04/13 11:35:35;;;;;;;11.40;5.80;;;28.70;63.90;;;;;;5488312;26;20029;-80
2024/04/13 11:38:39;;;;;;;11.82;5.70;;;28.70;67.00;;;;;;5486783;26;20018;-77
2024/04/13 11:41:43;;;;;;;11.73;6.05;;;28.70;67.20;;;;;;5486836;26;20026;-78
2024/04/13 11:44:49;;;;;;;14.10;5.80;;;28.70;65.90;;;;;;5485518;26;20018;-79
2024/04/13 11:47:53;;;;;;;12.18;6.38;;;28.70;65.70;;;;;;5486558;26;20021;-78
2024/04/13 11:50:57;;;;;;;9.07;5.80;;;28.70;67.50;;;;;;5486715;26;20022;-79
2024/04/13 11:54:02;;;;;;;12.60;6.15;;;28.70;68.00;;;;;;5486279;26;20071;-79
2024/04/13 11:57:11;;;;;;;13.65;6.20;;;28.70;68.80;;;;;;5486100;26;20018;-77
2024/04/13 12:00:16;;;;;;;12.07;6.30;;;28.70;68.70;;;;;;5485946;26;20360;-76
2024/04/13 12:03:20;;;;;;;18.15;6.43;;;28.70;68.70;;;;;;5485514;26;20022;-74
2024/04/13 12:06:24;;;;;;;12.88;5.95;;;28.70;68.90;;;;;;5485617;26;20022;-77
2024/04/13 12:09:29;;;;;;;13.63;6.45;;;28.70;68.80;;;;;;5485511;26;20022;-75
2024/04/13 12:12:33;;;;;;;9.45;6.10;;;28.70;68.90;;;;;;5485810;26;20026;-76
2024/04/13 12:15:37;;;;;;;15.18;6.32;;;28.70;68.80;;;;;;5485750;26;20030;-77
2024/04/13 12:18:41;;;;;;;15.95;7.13;;;28.60;68.80;;;;;;5485624;26;20038;-76
2024/04/13 12:21:45;;;;;;;12.15;6.32;;;28.60;68.80;;;;;;5485735;26;20388;-78
2024/04/13 12:24:50;;;;;;;13.23;6.75;;;28.60;68.80;;;;;;5485790;26;20018;-78
2024/04/13 12:27:54;;;;;;;18.83;7.30;;;28.50;69.10;;;;;;5485688;26;20018;-78
2024/04/13 12:30:58;;;;;;;13.15;6.03;;;28.50;69.80;;;;;;5484681;26;20037;-76
2024/04/13 12:34:06;;;;;;;16.60;6.75;;;28.50;70.20;;;;;;5484365;26;20026;-76
2024/04/13 12:37:10;;;;;;;16.38;7.75;;;28.40;70.20;;;;;;5485687;26;20021;-75
2024/04/13 12:40:14;;;;;;;14.48;6.55;;;28.40;69.70;;;;;;5488883;26;20022;-77
2024/04/13 12:43:18;;;;;;;13.80;6.68;;;28.30;69.80;;;;;;5489105;26;20018;-76
2024/04/13 12:46:22;;;;;;;9.60;6.45;;;28.20;70.70;;;;;;5489008;26;20018;-76
2024/04/13 12:49:26;;;;;;;18.17;7.35;;;28.20;70.80;;;;;;5488638;26;20089;-76
2024/04/13 12:52:31;;;;;;;15.90;7.10;;;28.10;70.90;;;;;;5489008;26;20466;-75
2024/04/13 12:55:36;;;;;;;11.65;6.57;;;28.10;70.70;;;;;;5488477;26;20014;-77
2024/04/13 12:58:39;;;;;;;14.93;7.00;;;28.00;70.80;;;;;;5488408;26;20369;-75
2024/04/13 13:01:44;;;;;;;17.42;6.85;;;28.00;70.90;;;;;;5488693;26;20465;-76
2024/04/13 13:04:48;;;;;;;15.88;7.15;;;27.90;70.40;;;;;;5486940;26;20021;-76
2024/04/13 13:07:52;;;;;;;14.50;6.95;;;27.90;71.10;;;;;;5487929;26;20030;-75
2024/04/13 13:10:57;;;;;;;11.98;6.55;;;27.90;70.30;;;;;;5488519;26;20022;-76
2024/04/13 13:14:01;;;;;;;11.98;6.68;;;27.80;70.70;;;;;;5488175;26;20242;-76
2024/04/13 13:17:05;;;;;;;22.20;6.57;;;27.80;70.00;;;;;;5488378;26;20018;-77
2024/04/13 13:20:09;;;;;;;18.27;7.70;;;27.70;69.80;;;;;;5487783;26;20014;-75
2024/04/13 13:23:14;;;;;;;17.42;8.40;;;27.70;69.70;;;;;;5483905;26;20329;-76
2024/04/13 13:26:18;;;;;;;12.35;6.55;;;27.60;70.30;;;;;;5484162;26;20469;-73
2024/04/13 13:29:22;;;;;;;15.95;6.80;;;27.60;70.20;;;;;;5483261;26;19994;-76
2024/04/13 13:32:26;;;;;;;17.63;7.03;;;27.60;70.70;;;;;;5484803;26;20030;-75
2024/04/13 13:35:30;;;;;;;19.20;7.15;;;27.60;70.50;;;;;;5485994;26;20010;-75
2024/04/13 13:38:34;;;;;;;18.00;7.38;;;27.50;70.70;;;;;;5487864;26;20018;-74
2024/04/13 13:41:39;;;;;;;17.98;7.22;;;27.50;71.20;;;;;;5488023;26;20125;-75
2024/04/13 13:44:42;;;;;;;20.00;7.60;;;27.40;71.50;;;;;;5487776;26;20030;-75
2024/04/13 13:47:47;;;;;;;17.05;7.22;;;27.40;71.50;;;;;;5486548;26;20025;-74
2024/04/13 13:50:50;;;;;;;13.45;7.05;;;27.40;71.40;;;;;;5487931;26;20030;-76
2024/04/13 13:53:55;;;;;;;11.40;7.22;;;27.40;71.60;;;;;;5487687;26;20010;-75
2024/04/13 13:56:59;;;;;;;26.10;7.97;;;27.30;71.90;;;;;;5487605;26;20333;-75
2024/04/13 14:00:04;;;;;;;19.98;7.15;;;27.40;71.60;;;;;;5488037;26;20034;-75
2024/04/13 14:03:09;;;;;;;10.90;7.22;;;27.40;71.90;;;;;;5487348;26;20022;-75
2024/04/13 14:06:14;;;;;;;15.88;7.28;;;27.30;72.40;;;;;;5487153;26;20018;-74
2024/04/13 14:09:18;;;;;;;17.85;8.13;;;27.40;72.40;;;;;;5487384;26;20029;-74
2024/04/13 14:12:22;;;;;;;15.48;6.60;;;27.30;72.20;;;;;;5487292;26;20034;-74
2024/04/13 14:15:27;;;;;;;15.00;6.55;;;27.30;72.40;;;;;;5487280;26;20034;-76
2024/04/13 14:18:30;;;;;;;14.25;7.20;;;27.20;72.30;;;;;;5487215;26;20470;-74
2024/04/13 14:21:36;;;;;;;13.57;7.10;;;27.20;72.30;;;;;;5486231;26;20365;-74
2024/04/13 14:24:41;;;;;;;10.02;6.45;;;27.20;72.90;;;;;;5487315;26;20624;-75
2024/04/13 14:27:45;;;;;;;10.80;7.00;;;27.20;72.90;;;;;;5487135;26;20024;-76
2024/04/13 14:30:49;;;;;;;17.50;7.85;;;26.90;72.30;;;;;;5487199;26;20030;-75
2024/04/13 14:33:53;;;;;;;14.90;6.63;;;27.20;72.40;;;;;;5486118;26;20045;-73
2024/04/13 14:36:57;;;;;;;12.75;6.72;;;27.10;72.30;;;;;;5486043;26;20025;-75
2024/04/13 14:40:01;;;;;;;22.92;7.95;;;27.20;72.40;;;;;;5486187;26;20042;-74
2024/04/13 14:43:05;;;;;;;10.55;6.72;;;27.10;72.10;;;;;;5486970;26;20380;-75
2024/04/13 14:46:09;;;;;;;15.98;6.47;;;27.00;72.30;;;;;;5486949;26;20026;-75
2024/04/13 14:49:13;;;;;;;13.05;6.65;;;27.00;72.20;;;;;;5486532;26;20477;-75
2024/04/13 14:52:17;;;;;;;12.63;6.40;;;27.00;72.30;;;;;;5486888;26;20365;-74
2024/04/13 14:55:22;;;;;;;13.65;5.88;;;27.00;71.90;;;;;;5486067;26;20715;-75
2024/04/13 14:58:26;;;;;;;10.45;5.70;;;26.90;71.40;;;;;;5486324;26;20023;-74
2024/04/13 15:01:30;;;;;;;13.27;6.07;;;26.90;70.20;;;;;;5485538;26;20026;-75
2024/04/13 15:04:34;;;;;;;11.57;5.57;;;26.80;69.60;;;;;;5486357;26;20025;-78
2024/04/13 15:07:38;;;;;;;8.05;5.10;;;26.80;69.50;;;;;;5486939;26;20022;-76
2024/04/13 15:10:47;;;;;;;13.50;5.63;;;26.70;69.50;;;;;;5486454;26;20034;-75
2024/04/13 15:13:51;;;;;;;14.23;5.72;;;26.70;69.10;;;;;;5486438;26;20023;-76
2024/04/13 15:16:55;;;;;;;14.68;5.55;;;26.60;68.80;;;;;;5486687;26;20045;-77
2024/04/13 15:19:59;;;;;;;18.08;6.00;;;26.50;67.60;;;;;;5486637;26;20343;-75
2024/04/13 15:23:03;;;;;;;11.88;4.93;;;26.50;68.20;;;;;;5486276;26;20086;-75
2024/04/13 15:26:07;;;;;;;13.30;5.00;;;26.50;68.30;;;;;;5486250;26;20042;-75
2024/04/13 15:29:11;;;;;;;13.02;5.43;;;26.50;69.00;;;;;;5484846;26;20365;-75
2024/04/13 15:32:15;;;;;;;10.02;4.80;;;26.40;69.60;;;;;;5485706;26;20430;-75
2024/04/13 15:35:19;;;;;;;12.07;5.85;;;26.50;70.20;;;;;;5485678;26;20023;-76
2024/04/13 15:38:23;;;;;;;12.70;6.30;;;26.40;70.70;;;;;;5485954;26;20018;-76
2024/04/13 15:41:28;;;;;;;9.60;5.47;;;;;;;;;;5484391;26;20025;-75
2024/04/13 15:44:32;;;;;;;21.90;6.53;;;26.40;71.00;;;;;;5485891;26;20033;-76
2024/04/13 15:47:36;;;;;;;8.68;5.15;;;26.30;71.00;;;;;;5485881;26;20018;-75
2024/04/13 15:50:40;;;;;;;12.23;5.88;;;26.30;71.30;;;;;;5486221;26;20022;-77
2024/04/13 15:53:45;;;;;;;15.93;5.70;;;26.40;71.60;;;;;;5485459;26;20022;-75
2024/04/13 15:56:49;;;;;;;10.02;5.25;;;26.30;71.80;;;;;;5485899;26;20018;-76
2024/04/13 15:59:58;;;;;;;7.50;5.68;;;26.30;71.70;;;;;;5485705;26;20018;-76
2024/04/13 16:03:03;;;;;;;7.70;5.13;;;26.30;71.70;;;;;;5486144;26;20110;-76
2024/04/13 16:06:07;;;;;;;10.20;5.40;;;26.30;71.70;;;;;;5485725;26;20045;-76
2024/04/13 16:09:12;;;;;;;9.50;5.97;;;26.30;71.90;;;;;;5485600;26;20029;-75
2024/04/13 16:12:16;;;;;;;9.43;5.55;;;26.20;71.40;;;;;;5485410;26;20030;-76
2024/04/13 16:15:20;;;;;;;9.88;6.00;;;26.20;71.40;;;;;;5463571;26;20030;-76
2024/04/13 16:18:24;;;;;;;21.35;6.40;;;26.20;71.90;;;;;;5485651;26;20034;-75
2024/04/13 16:21:29;;;;;;;8.60;5.00;;;26.20;72.20;;;;;;5485819;26;20078;-75
2024/04/13 16:24:33;;;;;;;12.20;5.22;;;26.20;72.00;;;;;;5485716;26;20733;-74
2024/04/13 16:27:37;;;;;;;12.43;5.82;;;26.00;71.70;;;;;;5485120;26;20018;-75
2024/04/13 16:30:41;;;;;;;20.30;5.88;;;26.00;71.50;;;;;;5485005;26;20034;-75